sensor_id;sensor_type;location;lat;lon;timestamp;P1;durP1;ratioP1;P2;durP2;ratioP2
11699;SDS011;5906;51.660;6.674;2022-12-29T00:00:55;2.23;;;2.13;;
11699;SDS011;5906;51.660;6.674;2022-12-29T00:03:22;2.20;;;2.03;;
11699;SDS011;5906;51.660;6.674;2022-12-29T00:05:55;2.33;;;2.23;;
11699;SDS011;5906;51.660;6.674;2022-12-29T00:08:23;2.33;;;2.13;;
11699;SDS011;5906;51.660;6.674;2022-12-29T00:11:16;2.47;;;2.27;;
11699;SDS011;5906;51.660;6.674;2022-12-29T00:13:44;2.30;;;2.10;;
11699;SDS011;5906;51.660;6.674;2022-12-29T00:16:30;2.47;;;2.27;;
11699;SDS011;5906;51.660;6.674;2022-12-29T00:18:58;2.67;;;2.47;;
11699;SDS011;5906;51.660;6.674;2022-12-29T00:21:26;2.43;;;2.23;;
11699;SDS011;5906;51.660;6.674;2022-12-29T00:24:16;2.10;;;1.97;;
11699;SDS011;5906;51.660;6.674;2022-12-29T00:30:02;2.47;;;2.27;;
11699;SDS011;5906;51.660;6.674;2022-12-29T00:32:53;2.43;;;2.30;;
11699;SDS011;5906;51.660;6.674;2022-12-29T00:35:39;2.70;;;2.50;;
11699;SDS011;5906;51.660;6.674;2022-12-29T00:38:11;3.27;;;2.30;;
11699;SDS011;5906;51.660;6.674;2022-12-29T00:40:58;2.20;;;2.00;;
11699;SDS011;5906;51.660;6.674;2022-12-29T00:43:43;2.87;;;2.57;;
11699;SDS011;5906;51.660;6.674;2022-12-29T00:46:29;3.57;;;2.43;;
11699;SDS011;5906;51.660;6.674;2022-12-29T00:48:57;2.37;;;2.17;;
11699;SDS011;5906;51.660;6.674;2022-12-29T00:51:43;2.40;;;2.30;;
11699;SDS011;5906;51.660;6.674;2022-12-29T00:54:11;3.10;;;2.10;;
11699;SDS011;5906;51.660;6.674;2022-12-29T00:56:39;2.90;;;2.37;;
11699;SDS011;5906;51.660;6.674;2022-12-29T00:59:07;2.70;;;2.43;;
11699;SDS011;5906;51.660;6.674;2022-12-29T01:01:36;3.43;;;2.10;;
11699;SDS011;5906;51.660;6.674;2022-12-29T01:04:04;3.40;;;2.50;;
11699;SDS011;5906;51.660;6.674;2022-12-29T01:06:32;2.13;;;2.03;;
11699;SDS011;5906;51.660;6.674;2022-12-29T01:09:03;2.20;;;2.10;;
11699;SDS011;5906;51.660;6.674;2022-12-29T01:11:49;2.30;;;2.10;;
11699;SDS011;5906;51.660;6.674;2022-12-29T01:14:17;4.57;;;2.10;;
11699;SDS011;5906;51.660;6.674;2022-12-29T01:16:45;2.40;;;2.20;;
11699;SDS011;5906;51.660;6.674;2022-12-29T01:19:13;2.63;;;2.43;;
11699;SDS011;5906;51.660;6.674;2022-12-29T01:21:41;2.53;;;2.33;;
11699;SDS011;5906;51.660;6.674;2022-12-29T01:24:11;2.33;;;2.23;;
11699;SDS011;5906;51.660;6.674;2022-12-29T01:26:38;2.50;;;2.30;;
11699;SDS011;5906;51.660;6.674;2022-12-29T01:29:05;7.93;;;2.30;;
11699;SDS011;5906;51.660;6.674;2022-12-29T01:31:32;2.13;;;2.03;;
11699;SDS011;5906;51.660;6.674;2022-12-29T01:33:59;4.20;;;2.33;;
11699;SDS011;5906;51.660;6.674;2022-12-29T01:36:27;2.57;;;2.37;;
11699;SDS011;5906;51.660;6.674;2022-12-29T01:38:54;2.20;;;2.00;;
11699;SDS011;5906;51.660;6.674;2022-12-29T01:41:21;2.77;;;2.57;;
11699;SDS011;5906;51.660;6.674;2022-12-29T01:46:25;2.50;;;2.03;;
11699;SDS011;5906;51.660;6.674;2022-12-29T01:49:12;4.27;;;2.10;;
11699;SDS011;5906;51.660;6.674;2022-12-29T01:51:52;1.90;;;1.80;;
11699;SDS011;5906;51.660;6.674;2022-12-29T01:54:23;2.43;;;2.23;;
11699;SDS011;5906;51.660;6.674;2022-12-29T01:56:55;3.70;;;2.20;;
11699;SDS011;5906;51.660;6.674;2022-12-29T01:59:27;2.63;;;2.10;;
11699;SDS011;5906;51.660;6.674;2022-12-29T02:01:58;2.03;;;1.93;;
11699;SDS011;5906;51.660;6.674;2022-12-29T02:04:26;2.30;;;2.10;;
11699;SDS011;5906;51.660;6.674;2022-12-29T02:07:07;1.93;;;1.83;;
11699;SDS011;5906;51.660;6.674;2022-12-29T02:09:37;2.50;;;2.30;;
11699;SDS011;5906;51.660;6.674;2022-12-29T02:12:05;1.97;;;1.80;;
11699;SDS011;5906;51.660;6.674;2022-12-29T02:14:32;2.10;;;1.90;;
11699;SDS011;5906;51.660;6.674;2022-12-29T02:17:11;2.23;;;2.03;;
11699;SDS011;5906;51.660;6.674;2022-12-29T02:37:00;2.33;;;1.90;;
11699;SDS011;5906;51.660;6.674;2022-12-29T02:39:41;1.90;;;1.80;;
11699;SDS011;5906;51.660;6.674;2022-12-29T02:42:13;1.90;;;1.80;;
11699;SDS011;5906;51.660;6.674;2022-12-29T02:45:02;3.40;;;1.93;;
11699;SDS011;5906;51.660;6.674;2022-12-29T02:48:04;4.07;;;1.90;;
11699;SDS011;5906;51.660;6.674;2022-12-29T02:50:43;6.27;;;2.03;;
11699;SDS011;5906;51.660;6.674;2022-12-29T02:53:17;3.23;;;1.80;;
11699;SDS011;5906;51.660;6.674;2022-12-29T02:56:06;3.73;;;2.43;;
11699;SDS011;5906;51.660;6.674;2022-12-29T02:58:33;1.87;;;1.77;;
11699;SDS011;5906;51.660;6.674;2022-12-29T03:01:11;5.27;;;2.07;;
11699;SDS011;5906;51.660;6.674;2022-12-29T03:09:36;2.33;;;2.13;;
11699;SDS011;5906;51.660;6.674;2022-12-29T03:23:45;7.77;;;1.93;;
11699;SDS011;5906;51.660;6.674;2022-12-29T03:26:16;2.90;;;2.33;;
11699;SDS011;5906;51.660;6.674;2022-12-29T03:28:47;4.30;;;1.90;;
11699;SDS011;5906;51.660;6.674;2022-12-29T03:31:18;10.30;;;2.33;;
11699;SDS011;5906;51.660;6.674;2022-12-29T03:33:46;3.30;;;1.77;;
11699;SDS011;5906;51.660;6.674;2022-12-29T03:36:23;2.53;;;2.30;;
11699;SDS011;5906;51.660;6.674;2022-12-29T03:38:59;3.00;;;2.23;;
11699;SDS011;5906;51.660;6.674;2022-12-29T03:41:33;3.73;;;2.00;;
11699;SDS011;5906;51.660;6.674;2022-12-29T03:44:01;3.40;;;2.23;;
11699;SDS011;5906;51.660;6.674;2022-12-29T03:46:28;1.83;;;1.73;;
11699;SDS011;5906;51.660;6.674;2022-12-29T03:48:55;3.40;;;1.90;;
11699;SDS011;5906;51.660;6.674;2022-12-29T03:51:23;6.00;;;1.97;;
11699;SDS011;5906;51.660;6.674;2022-12-29T03:53:50;4.70;;;2.20;;
11699;SDS011;5906;51.660;6.674;2022-12-29T03:56:17;2.90;;;2.00;;
11699;SDS011;5906;51.660;6.674;2022-12-29T03:58:44;1.77;;;1.60;;
11699;SDS011;5906;51.660;6.674;2022-12-29T04:01:11;2.30;;;2.10;;
11699;SDS011;5906;51.660;6.674;2022-12-29T04:03:39;1.63;;;1.53;;
11699;SDS011;5906;51.660;6.674;2022-12-29T04:06:06;4.60;;;1.97;;
11699;SDS011;5906;51.660;6.674;2022-12-29T04:08:34;2.20;;;1.67;;
11699;SDS011;5906;51.660;6.674;2022-12-29T04:11:01;7.87;;;1.90;;
11699;SDS011;5906;51.660;6.674;2022-12-29T04:13:28;2.20;;;2.00;;
11699;SDS011;5906;51.660;6.674;2022-12-29T04:15:55;1.90;;;1.80;;
11699;SDS011;5906;51.660;6.674;2022-12-29T04:18:22;1.77;;;1.60;;
11699;SDS011;5906;51.660;6.674;2022-12-29T04:20:49;1.70;;;1.60;;
11699;SDS011;5906;51.660;6.674;2022-12-29T04:23:31;6.40;;;2.27;;
11699;SDS011;5906;51.660;6.674;2022-12-29T04:25:59;1.70;;;1.60;;
11699;SDS011;5906;51.660;6.674;2022-12-29T04:28:27;2.00;;;1.80;;
11699;SDS011;5906;51.660;6.674;2022-12-29T04:30:55;1.87;;;1.77;;
11699;SDS011;5906;51.660;6.674;2022-12-29T04:33:22;1.87;;;1.77;;
11699;SDS011;5906;51.660;6.674;2022-12-29T04:35:49;1.70;;;1.60;;
11699;SDS011;5906;51.660;6.674;2022-12-29T04:38:16;1.83;;;1.60;;
11699;SDS011;5906;51.660;6.674;2022-12-29T04:40:44;1.80;;;1.70;;
11699;SDS011;5906;51.660;6.674;2022-12-29T04:43:11;1.60;;;1.50;;
11699;SDS011;5906;51.660;6.674;2022-12-29T04:45:42;1.70;;;1.60;;
11699;SDS011;5906;51.660;6.674;2022-12-29T04:48:10;1.60;;;1.50;;
11699;SDS011;5906;51.660;6.674;2022-12-29T04:50:39;2.27;;;1.70;;
11699;SDS011;5906;51.660;6.674;2022-12-29T04:53:06;2.53;;;2.33;;
11699;SDS011;5906;51.660;6.674;2022-12-29T04:55:33;5.33;;;1.80;;
11699;SDS011;5906;51.660;6.674;2022-12-29T04:58:00;1.90;;;1.80;;
11699;SDS011;5906;51.660;6.674;2022-12-29T05:00:27;2.00;;;1.80;;
11699;SDS011;5906;51.660;6.674;2022-12-29T05:02:54;3.90;;;1.90;;
11699;SDS011;5906;51.660;6.674;2022-12-29T05:05:21;2.80;;;1.93;;
11699;SDS011;5906;51.660;6.674;2022-12-29T05:07:49;2.20;;;2.00;;
11699;SDS011;5906;51.660;6.674;2022-12-29T05:10:15;1.57;;;1.47;;
11699;SDS011;5906;51.660;6.674;2022-12-29T05:12:43;2.43;;;1.87;;
11699;SDS011;5906;51.660;6.674;2022-12-29T05:15:10;7.13;;;1.97;;
11699;SDS011;5906;51.660;6.674;2022-12-29T05:17:38;3.30;;;1.80;;
11699;SDS011;5906;51.660;6.674;2022-12-29T05:20:05;3.10;;;2.07;;
11699;SDS011;5906;51.660;6.674;2022-12-29T05:22:33;4.30;;;1.73;;
11699;SDS011;5906;51.660;6.674;2022-12-29T05:25:00;2.87;;;1.60;;
11699;SDS011;5906;51.660;6.674;2022-12-29T05:27:27;2.47;;;1.80;;
11699;SDS011;5906;51.660;6.674;2022-12-29T05:29:54;6.53;;;2.27;;
11699;SDS011;5906;51.660;6.674;2022-12-29T05:32:21;2.77;;;2.20;;
11699;SDS011;5906;51.660;6.674;2022-12-29T05:34:48;2.60;;;2.10;;
11699;SDS011;5906;51.660;6.674;2022-12-29T05:37:16;1.80;;;1.70;;
11699;SDS011;5906;51.660;6.674;2022-12-29T05:39:43;4.60;;;2.20;;
11699;SDS011;5906;51.660;6.674;2022-12-29T05:42:10;3.57;;;1.60;;
11699;SDS011;5906;51.660;6.674;2022-12-29T05:44:37;2.20;;;2.00;;
11699;SDS011;5906;51.660;6.674;2022-12-29T05:47:04;1.70;;;1.60;;
11699;SDS011;5906;51.660;6.674;2022-12-29T05:49:31;2.30;;;2.10;;
11699;SDS011;5906;51.660;6.674;2022-12-29T05:51:59;3.87;;;2.07;;
11699;SDS011;5906;51.660;6.674;2022-12-29T05:54:26;2.30;;;2.03;;
11699;SDS011;5906;51.660;6.674;2022-12-29T05:56:53;2.40;;;2.20;;
11699;SDS011;5906;51.660;6.674;2022-12-29T05:59:19;1.60;;;1.50;;
11699;SDS011;5906;51.660;6.674;2022-12-29T06:01:47;1.93;;;1.83;;
11699;SDS011;5906;51.660;6.674;2022-12-29T06:04:14;4.20;;;2.10;;
11699;SDS011;5906;51.660;6.674;2022-12-29T06:06:42;3.33;;;2.00;;
11699;SDS011;5906;51.660;6.674;2022-12-29T06:09:09;4.63;;;2.10;;
11699;SDS011;5906;51.660;6.674;2022-12-29T06:11:37;5.37;;;2.17;;
11699;SDS011;5906;51.660;6.674;2022-12-29T06:14:04;3.77;;;2.00;;
11699;SDS011;5906;51.660;6.674;2022-12-29T06:16:31;4.60;;;2.20;;
11699;SDS011;5906;51.660;6.674;2022-12-29T06:18:58;6.90;;;2.50;;
11699;SDS011;5906;51.660;6.674;2022-12-29T06:21:25;2.90;;;2.07;;
11699;SDS011;5906;51.660;6.674;2022-12-29T06:23:53;4.37;;;2.03;;
11699;SDS011;5906;51.660;6.674;2022-12-29T06:26:20;11.33;;;2.53;;
11699;SDS011;5906;51.660;6.674;2022-12-29T06:28:47;2.90;;;2.07;;
11699;SDS011;5906;51.660;6.674;2022-12-29T06:31:15;12.87;;;3.50;;
11699;SDS011;5906;51.660;6.674;2022-12-29T06:33:42;3.40;;;2.40;;
11699;SDS011;5906;51.660;6.674;2022-12-29T06:36:14;6.23;;;2.70;;
11699;SDS011;5906;51.660;6.674;2022-12-29T06:38:42;7.33;;;2.20;;
11699;SDS011;5906;51.660;6.674;2022-12-29T06:41:09;3.23;;;2.20;;
11699;SDS011;5906;51.660;6.674;2022-12-29T06:43:36;2.93;;;2.53;;
11699;SDS011;5906;51.660;6.674;2022-12-29T06:46:04;3.50;;;2.50;;
11699;SDS011;5906;51.660;6.674;2022-12-29T06:48:32;6.00;;;2.67;;
11699;SDS011;5906;51.660;6.674;2022-12-29T06:50:59;10.17;;;2.43;;
11699;SDS011;5906;51.660;6.674;2022-12-29T06:53:26;4.17;;;2.70;;
11699;SDS011;5906;51.660;6.674;2022-12-29T06:55:53;4.60;;;2.47;;
11699;SDS011;5906;51.660;6.674;2022-12-29T06:58:20;5.87;;;2.17;;
11699;SDS011;5906;51.660;6.674;2022-12-29T07:00:47;5.70;;;2.93;;
11699;SDS011;5906;51.660;6.674;2022-12-29T07:03:14;9.33;;;2.33;;
11699;SDS011;5906;51.660;6.674;2022-12-29T07:05:42;9.17;;;3.20;;
11699;SDS011;5906;51.660;6.674;2022-12-29T07:08:09;3.70;;;2.17;;
11699;SDS011;5906;51.660;6.674;2022-12-29T07:10:36;10.77;;;2.70;;
11699;SDS011;5906;51.660;6.674;2022-12-29T07:13:03;8.30;;;2.77;;
11699;SDS011;5906;51.660;6.674;2022-12-29T07:15:30;12.63;;;3.37;;
11699;SDS011;5906;51.660;6.674;2022-12-29T07:17:58;6.17;;;3.10;;
11699;SDS011;5906;51.660;6.674;2022-12-29T07:20:25;8.17;;;4.10;;
11699;SDS011;5906;51.660;6.674;2022-12-29T07:22:52;6.20;;;3.03;;
11699;SDS011;5906;51.660;6.674;2022-12-29T07:25:20;6.20;;;3.83;;
11699;SDS011;5906;51.660;6.674;2022-12-29T07:27:47;5.23;;;3.13;;
11699;SDS011;5906;51.660;6.674;2022-12-29T07:30:14;5.47;;;2.50;;
11699;SDS011;5906;51.660;6.674;2022-12-29T07:32:42;10.37;;;3.77;;
11699;SDS011;5906;51.660;6.674;2022-12-29T07:35:09;3.30;;;2.80;;
11699;SDS011;5906;51.660;6.674;2022-12-29T07:37:37;5.00;;;2.60;;
11699;SDS011;5906;51.660;6.674;2022-12-29T07:40:04;6.00;;;3.00;;
11699;SDS011;5906;51.660;6.674;2022-12-29T07:42:32;2.23;;;2.03;;
11699;SDS011;5906;51.660;6.674;2022-12-29T07:44:59;3.57;;;2.20;;
11699;SDS011;5906;51.660;6.674;2022-12-29T07:47:26;7.73;;;3.47;;
11699;SDS011;5906;51.660;6.674;2022-12-29T07:49:53;3.30;;;2.17;;
11699;SDS011;5906;51.660;6.674;2022-12-29T07:52:20;7.63;;;2.47;;
11699;SDS011;5906;51.660;6.674;2022-12-29T07:54:48;3.97;;;2.33;;
11699;SDS011;5906;51.660;6.674;2022-12-29T07:57:14;2.83;;;2.50;;
11699;SDS011;5906;51.660;6.674;2022-12-29T07:59:42;7.50;;;2.87;;
11699;SDS011;5906;51.660;6.674;2022-12-29T08:02:10;8.50;;;3.10;;
11699;SDS011;5906;51.660;6.674;2022-12-29T08:04:38;3.93;;;2.27;;
11699;SDS011;5906;51.660;6.674;2022-12-29T08:07:05;10.93;;;2.97;;
11699;SDS011;5906;51.660;6.674;2022-12-29T08:09:32;4.90;;;2.60;;
11699;SDS011;5906;51.660;6.674;2022-12-29T08:11:59;12.80;;;3.40;;
11699;SDS011;5906;51.660;6.674;2022-12-29T08:14:26;4.20;;;3.40;;
11699;SDS011;5906;51.660;6.674;2022-12-29T08:16:53;4.87;;;3.30;;
11699;SDS011;5906;51.660;6.674;2022-12-29T08:19:20;5.33;;;2.50;;
11699;SDS011;5906;51.660;6.674;2022-12-29T08:21:47;6.53;;;2.90;;
11699;SDS011;5906;51.660;6.674;2022-12-29T08:24:14;8.17;;;3.10;;
11699;SDS011;5906;51.660;6.674;2022-12-29T08:26:41;10.43;;;3.20;;
11699;SDS011;5906;51.660;6.674;2022-12-29T08:29:08;5.63;;;2.27;;
11699;SDS011;5906;51.660;6.674;2022-12-29T08:31:35;8.47;;;3.10;;
11699;SDS011;5906;51.660;6.674;2022-12-29T08:34:03;9.53;;;3.13;;
11699;SDS011;5906;51.660;6.674;2022-12-29T08:36:30;7.03;;;2.63;;
11699;SDS011;5906;51.660;6.674;2022-12-29T08:38:57;4.63;;;2.60;;
11699;SDS011;5906;51.660;6.674;2022-12-29T08:41:24;10.50;;;2.70;;
11699;SDS011;5906;51.660;6.674;2022-12-29T08:43:51;9.97;;;3.27;;
11699;SDS011;5906;51.660;6.674;2022-12-29T08:46:18;6.53;;;3.40;;
11699;SDS011;5906;51.660;6.674;2022-12-29T08:48:46;8.03;;;2.80;;
11699;SDS011;5906;51.660;6.674;2022-12-29T08:51:13;5.60;;;2.60;;
11699;SDS011;5906;51.660;6.674;2022-12-29T08:53:42;8.97;;;2.70;;
11699;SDS011;5906;51.660;6.674;2022-12-29T08:56:10;9.37;;;3.00;;
11699;SDS011;5906;51.660;6.674;2022-12-29T08:58:38;5.30;;;2.50;;
11699;SDS011;5906;51.660;6.674;2022-12-29T09:01:05;11.23;;;3.27;;
11699;SDS011;5906;51.660;6.674;2022-12-29T09:03:33;5.33;;;2.13;;
11699;SDS011;5906;51.660;6.674;2022-12-29T09:06:20;10.90;;;3.20;;
11699;SDS011;5906;51.660;6.674;2022-12-29T09:08:47;9.20;;;2.60;;
11699;SDS011;5906;51.660;6.674;2022-12-29T09:11:16;8.53;;;2.63;;
11699;SDS011;5906;51.660;6.674;2022-12-29T09:13:45;9.00;;;2.30;;
11699;SDS011;5906;51.660;6.674;2022-12-29T09:16:13;6.97;;;2.73;;
11699;SDS011;5906;51.660;6.674;2022-12-29T09:18:40;4.37;;;2.37;;
11699;SDS011;5906;51.660;6.674;2022-12-29T09:21:08;6.80;;;2.77;;
11699;SDS011;5906;51.660;6.674;2022-12-29T09:23:37;5.83;;;2.73;;
11699;SDS011;5906;51.660;6.674;2022-12-29T09:26:05;4.90;;;2.77;;
11699;SDS011;5906;51.660;6.674;2022-12-29T09:28:32;6.43;;;2.73;;
11699;SDS011;5906;51.660;6.674;2022-12-29T09:30:59;6.03;;;2.50;;
11699;SDS011;5906;51.660;6.674;2022-12-29T09:33:26;5.90;;;3.53;;
11699;SDS011;5906;51.660;6.674;2022-12-29T09:35:55;6.53;;;2.47;;
11699;SDS011;5906;51.660;6.674;2022-12-29T09:38:24;9.53;;;3.07;;
11699;SDS011;5906;51.660;6.674;2022-12-29T09:40:53;6.87;;;2.23;;
11699;SDS011;5906;51.660;6.674;2022-12-29T09:43:25;8.70;;;2.87;;
11699;SDS011;5906;51.660;6.674;2022-12-29T09:46:19;5.90;;;2.30;;
11699;SDS011;5906;51.660;6.674;2022-12-29T09:48:53;5.33;;;2.77;;
11699;SDS011;5906;51.660;6.674;2022-12-29T09:51:34;5.60;;;2.40;;
11699;SDS011;5906;51.660;6.674;2022-12-29T09:54:19;5.33;;;3.20;;
11699;SDS011;5906;51.660;6.674;2022-12-29T09:56:52;6.07;;;2.30;;
11699;SDS011;5906;51.660;6.674;2022-12-29T09:59:26;5.13;;;2.73;;
11699;SDS011;5906;51.660;6.674;2022-12-29T10:02:11;5.07;;;2.30;;
11699;SDS011;5906;51.660;6.674;2022-12-29T10:04:43;4.73;;;2.43;;
11699;SDS011;5906;51.660;6.674;2022-12-29T10:10:34;13.93;;;2.47;;
11699;SDS011;5906;51.660;6.674;2022-12-29T10:16:09;3.40;;;2.40;;
11699;SDS011;5906;51.660;6.674;2022-12-29T10:24:30;9.70;;;2.83;;
11699;SDS011;5906;51.660;6.674;2022-12-29T10:27:04;6.57;;;2.57;;
11699;SDS011;5906;51.660;6.674;2022-12-29T10:29:37;3.67;;;2.03;;
11699;SDS011;5906;51.660;6.674;2022-12-29T10:32:29;5.77;;;2.90;;
11699;SDS011;5906;51.660;6.674;2022-12-29T10:35:23;14.60;;;2.70;;
11699;SDS011;5906;51.660;6.674;2022-12-29T10:37:58;7.30;;;2.50;;
11699;SDS011;5906;51.660;6.674;2022-12-29T10:40:40;8.47;;;2.60;;
11699;SDS011;5906;51.660;6.674;2022-12-29T10:43:25;7.30;;;2.83;;
11699;SDS011;5906;51.660;6.674;2022-12-29T10:46:19;14.53;;;2.50;;
11699;SDS011;5906;51.660;6.674;2022-12-29T10:48:50;12.63;;;2.57;;
11699;SDS011;5906;51.660;6.674;2022-12-29T10:51:30;6.77;;;2.30;;
11699;SDS011;5906;51.660;6.674;2022-12-29T10:54:10;4.07;;;2.10;;
11699;SDS011;5906;51.660;6.674;2022-12-29T10:59:21;8.13;;;2.90;;
11699;SDS011;5906;51.660;6.674;2022-12-29T11:01:53;6.83;;;2.40;;
11699;SDS011;5906;51.660;6.674;2022-12-29T11:07:19;5.40;;;2.93;;
11699;SDS011;5906;51.660;6.674;2022-12-29T11:09:52;4.83;;;4.00;;
11699;SDS011;5906;51.660;6.674;2022-12-29T11:12:21;5.70;;;2.10;;
11699;SDS011;5906;51.660;6.674;2022-12-29T11:15:13;10.33;;;3.17;;
11699;SDS011;5906;51.660;6.674;2022-12-29T11:20:39;5.57;;;2.53;;
11699;SDS011;5906;51.660;6.674;2022-12-29T11:23:21;13.77;;;3.80;;
11699;SDS011;5906;51.660;6.674;2022-12-29T11:26:05;8.07;;;3.10;;
11699;SDS011;5906;51.660;6.674;2022-12-29T11:31:43;14.63;;;3.90;;
11699;SDS011;5906;51.660;6.674;2022-12-29T11:34:23;6.83;;;3.07;;
11699;SDS011;5906;51.660;6.674;2022-12-29T11:40:18;14.80;;;3.63;;
11699;SDS011;5906;51.660;6.674;2022-12-29T11:42:37;6.00;;;2.53;;
11699;SDS011;5906;51.660;6.674;2022-12-29T11:47:41;3.13;;;1.80;;
11699;SDS011;5906;51.660;6.674;2022-12-29T11:50:16;4.43;;;2.37;;
11699;SDS011;5906;51.660;6.674;2022-12-29T11:52:49;9.23;;;2.30;;
11699;SDS011;5906;51.660;6.674;2022-12-29T11:55:23;9.03;;;2.77;;
11699;SDS011;5906;51.660;6.674;2022-12-29T11:57:53;6.37;;;2.40;;
11699;SDS011;5906;51.660;6.674;2022-12-29T12:00:22;8.70;;;2.60;;
11699;SDS011;5906;51.660;6.674;2022-12-29T12:05:33;7.03;;;2.63;;
11699;SDS011;5906;51.660;6.674;2022-12-29T12:10:51;12.17;;;3.00;;
11699;SDS011;5906;51.660;6.674;2022-12-29T12:13:25;12.97;;;2.90;;
11699;SDS011;5906;51.660;6.674;2022-12-29T12:16:12;8.30;;;2.40;;
11699;SDS011;5906;51.660;6.674;2022-12-29T12:18:56;11.70;;;3.10;;
11699;SDS011;5906;51.660;6.674;2022-12-29T12:21:41;10.60;;;3.17;;
11699;SDS011;5906;51.660;6.674;2022-12-29T12:26:44;10.63;;;2.30;;
11699;SDS011;5906;51.660;6.674;2022-12-29T12:34:55;10.43;;;3.10;;
11699;SDS011;5906;51.660;6.674;2022-12-29T12:48:29;3.83;;;2.83;;
11699;SDS011;5906;51.660;6.674;2022-12-29T12:53:45;6.13;;;2.30;;
11699;SDS011;5906;51.660;6.674;2022-12-29T13:04:38;9.03;;;3.27;;
11699;SDS011;5906;51.660;6.674;2022-12-29T13:10:22;13.20;;;3.97;;
11699;SDS011;5906;51.660;6.674;2022-12-29T13:13:30;4.97;;;2.77;;
11699;SDS011;5906;51.660;6.674;2022-12-29T13:18:55;11.00;;;2.80;;
11699;SDS011;5906;51.660;6.674;2022-12-29T13:24:35;7.80;;;2.97;;
11699;SDS011;5906;51.660;6.674;2022-12-29T13:30:04;5.07;;;2.60;;
11699;SDS011;5906;51.660;6.674;2022-12-29T13:37:51;10.07;;;3.10;;
11699;SDS011;5906;51.660;6.674;2022-12-29T13:40:23;11.43;;;2.90;;
11699;SDS011;5906;51.660;6.674;2022-12-29T13:42:52;7.80;;;3.07;;
11699;SDS011;5906;51.660;6.674;2022-12-29T13:45:22;9.33;;;3.03;;
11699;SDS011;5906;51.660;6.674;2022-12-29T13:48:14;6.87;;;2.20;;
11699;SDS011;5906;51.660;6.674;2022-12-29T13:50:48;7.60;;;2.60;;
11699;SDS011;5906;51.660;6.674;2022-12-29T13:53:24;7.50;;;2.70;;
11699;SDS011;5906;51.660;6.674;2022-12-29T13:56:19;9.27;;;2.87;;
11699;SDS011;5906;51.660;6.674;2022-12-29T14:01:59;8.27;;;2.80;;
11699;SDS011;5906;51.660;6.674;2022-12-29T14:04:35;10.37;;;3.03;;
11699;SDS011;5906;51.660;6.674;2022-12-29T14:07:20;10.67;;;3.50;;
11699;SDS011;5906;51.660;6.674;2022-12-29T14:09:51;5.90;;;3.80;;
11699;SDS011;5906;51.660;6.674;2022-12-29T14:17:39;6.47;;;2.60;;
11699;SDS011;5906;51.660;6.674;2022-12-29T14:20:17;8.40;;;2.63;;
11699;SDS011;5906;51.660;6.674;2022-12-29T14:22:56;8.40;;;2.60;;
11699;SDS011;5906;51.660;6.674;2022-12-29T14:28:35;7.10;;;2.77;;
11699;SDS011;5906;51.660;6.674;2022-12-29T14:33:40;6.20;;;2.57;;
11699;SDS011;5906;51.660;6.674;2022-12-29T14:52:57;13.27;;;3.80;;
11699;SDS011;5906;51.660;6.674;2022-12-29T14:58:31;10.13;;;2.90;;
11699;SDS011;5906;51.660;6.674;2022-12-29T15:01:02;10.47;;;3.17;;
11699;SDS011;5906;51.660;6.674;2022-12-29T15:03:30;8.20;;;2.93;;
11699;SDS011;5906;51.660;6.674;2022-12-29T15:06:04;6.03;;;3.20;;
11699;SDS011;5906;51.660;6.674;2022-12-29T15:08:42;16.47;;;4.33;;
11699;SDS011;5906;51.660;6.674;2022-12-29T15:16:56;11.73;;;3.80;;
11699;SDS011;5906;51.660;6.674;2022-12-29T15:19:24;7.80;;;4.60;;
11699;SDS011;5906;51.660;6.674;2022-12-29T15:21:53;12.70;;;3.20;;
11699;SDS011;5906;51.660;6.674;2022-12-29T15:24:23;7.43;;;3.70;;
11699;SDS011;5906;51.660;6.674;2022-12-29T15:26:51;8.30;;;4.30;;
11699;SDS011;5906;51.660;6.674;2022-12-29T15:29:39;6.93;;;4.83;;
11699;SDS011;5906;51.660;6.674;2022-12-29T15:32:21;9.13;;;3.47;;
11699;SDS011;5906;51.660;6.674;2022-12-29T15:34:50;5.77;;;3.83;;
11699;SDS011;5906;51.660;6.674;2022-12-29T15:37:26;12.37;;;3.63;;
11699;SDS011;5906;51.660;6.674;2022-12-29T15:39:55;8.30;;;3.07;;
11699;SDS011;5906;51.660;6.674;2022-12-29T15:42:35;16.77;;;3.33;;
11699;SDS011;5906;51.660;6.674;2022-12-29T15:45:27;7.27;;;3.27;;
11699;SDS011;5906;51.660;6.674;2022-12-29T15:48:00;7.43;;;4.33;;
11699;SDS011;5906;51.660;6.674;2022-12-29T15:50:27;7.33;;;4.17;;
11699;SDS011;5906;51.660;6.674;2022-12-29T15:52:57;7.73;;;3.50;;
11699;SDS011;5906;51.660;6.674;2022-12-29T15:55:32;9.97;;;3.27;;
11699;SDS011;5906;51.660;6.674;2022-12-29T15:58:04;10.60;;;4.90;;
11699;SDS011;5906;51.660;6.674;2022-12-29T16:00:46;10.40;;;3.70;;
11699;SDS011;5906;51.660;6.674;2022-12-29T16:03:15;9.47;;;2.97;;
11699;SDS011;5906;51.660;6.674;2022-12-29T16:05:49;11.37;;;3.37;;
11699;SDS011;5906;51.660;6.674;2022-12-29T16:11:18;12.83;;;2.90;;
11699;SDS011;5906;51.660;6.674;2022-12-29T16:13:51;10.17;;;3.50;;
11699;SDS011;5906;51.660;6.674;2022-12-29T16:16:22;7.50;;;3.00;;
11699;SDS011;5906;51.660;6.674;2022-12-29T16:18:54;8.07;;;3.30;;
11699;SDS011;5906;51.660;6.674;2022-12-29T16:21:28;10.63;;;3.10;;
11699;SDS011;5906;51.660;6.674;2022-12-29T16:24:00;11.17;;;3.60;;
11699;SDS011;5906;51.660;6.674;2022-12-29T16:26:31;8.80;;;3.03;;
11699;SDS011;5906;51.660;6.674;2022-12-29T16:28:59;4.23;;;2.93;;
11699;SDS011;5906;51.660;6.674;2022-12-29T16:31:33;13.80;;;3.17;;
11699;SDS011;5906;51.660;6.674;2022-12-29T16:36:56;10.73;;;3.77;;
11699;SDS011;5906;51.660;6.674;2022-12-29T16:42:00;7.73;;;3.00;;
11699;SDS011;5906;51.660;6.674;2022-12-29T16:44:47;7.77;;;3.77;;
11699;SDS011;5906;51.660;6.674;2022-12-29T16:49:42;13.10;;;4.70;;
11699;SDS011;5906;51.660;6.674;2022-12-29T16:52:13;12.60;;;5.20;;
11699;SDS011;5906;51.660;6.674;2022-12-29T16:54:48;8.50;;;3.23;;
11699;SDS011;5906;51.660;6.674;2022-12-29T16:57:26;16.83;;;6.10;;
11699;SDS011;5906;51.660;6.674;2022-12-29T16:59:57;10.10;;;4.20;;
11699;SDS011;5906;51.660;6.674;2022-12-29T17:02:29;11.00;;;5.37;;
11699;SDS011;5906;51.660;6.674;2022-12-29T17:04:58;10.13;;;6.10;;
11699;SDS011;5906;51.660;6.674;2022-12-29T17:07:26;7.13;;;3.90;;
11699;SDS011;5906;51.660;6.674;2022-12-29T17:09:54;17.37;;;6.10;;
11699;SDS011;5906;51.660;6.674;2022-12-29T17:12:22;8.90;;;4.13;;
11699;SDS011;5906;51.660;6.674;2022-12-29T17:14:55;6.23;;;3.27;;
11699;SDS011;5906;51.660;6.674;2022-12-29T17:20:25;7.67;;;3.60;;
11699;SDS011;5906;51.660;6.674;2022-12-29T17:22:54;7.70;;;3.30;;
11699;SDS011;5906;51.660;6.674;2022-12-29T17:27:59;8.60;;;3.40;;
11699;SDS011;5906;51.660;6.674;2022-12-29T17:30:30;12.33;;;3.83;;
11699;SDS011;5906;51.660;6.674;2022-12-29T17:33:02;3.93;;;2.77;;
11699;SDS011;5906;51.660;6.674;2022-12-29T17:35:31;8.73;;;3.20;;
11699;SDS011;5906;51.660;6.674;2022-12-29T17:37:57;2.30;;;2.03;;
11699;SDS011;5906;51.660;6.674;2022-12-29T17:40:26;4.33;;;3.20;;
11699;SDS011;5906;51.660;6.674;2022-12-29T17:42:55;3.90;;;2.33;;
11699;SDS011;5906;51.660;6.674;2022-12-29T17:45:32;6.87;;;2.70;;
11699;SDS011;5906;51.660;6.674;2022-12-29T17:47:59;10.13;;;3.13;;
11699;SDS011;5906;51.660;6.674;2022-12-29T17:50:27;10.60;;;3.20;;
11699;SDS011;5906;51.660;6.674;2022-12-29T17:52:56;4.60;;;3.33;;
11699;SDS011;5906;51.660;6.674;2022-12-29T17:55:26;7.70;;;3.87;;
11699;SDS011;5906;51.660;6.674;2022-12-29T17:58:45;10.93;;;3.53;;
11699;SDS011;5906;51.660;6.674;2022-12-29T18:00:58;4.30;;;2.50;;
11699;SDS011;5906;51.660;6.674;2022-12-29T18:03:28;9.97;;;2.80;;
11699;SDS011;5906;51.660;6.674;2022-12-29T18:05:58;5.90;;;3.00;;
11699;SDS011;5906;51.660;6.674;2022-12-29T18:08:25;15.70;;;3.80;;
11699;SDS011;5906;51.660;6.674;2022-12-29T18:10:53;6.73;;;3.30;;
11699;SDS011;5906;51.660;6.674;2022-12-29T18:13:24;7.03;;;3.67;;
11699;SDS011;5906;51.660;6.674;2022-12-29T18:16:06;7.70;;;2.93;;
11699;SDS011;5906;51.660;6.674;2022-12-29T18:18:36;9.33;;;3.70;;
11699;SDS011;5906;51.660;6.674;2022-12-29T18:21:03;5.53;;;2.90;;
11699;SDS011;5906;51.660;6.674;2022-12-29T18:23:31;7.10;;;3.57;;
11699;SDS011;5906;51.660;6.674;2022-12-29T18:26:01;4.77;;;3.47;;